Time;durP1;ratioP1;P1;durP2;ratioP2;P2;SDS_P1;SDS_P2;PMS_P1;PMS_P2;Temp;Humidity;BMP_temperature;BMP_pressure;BME280_temperature;BME280_humidity;BME280_pressure;Samples;Min_cycle;Max_cycle;Signal;HPM_P1;HPM_P2
2023/09/10 00:00:45;;;;;;;4.72;3.10;;;22.30;92.20;;;;;;5012857;28;20494;-78
2023/09/10 00:03:13;;;;;;;4.63;3.03;;;22.30;92.20;;;;;;5011543;28;20029;-78
2023/09/10 00:05:39;;;;;;;4.57;3.22;;;22.40;92.20;;;;;;5011702;28;20474;-78
2023/09/10 00:08:05;;;;;;;4.60;3.05;;;22.40;92.10;;;;;;5012805;28;20076;-77
2023/09/10 00:10:30;;;;;;;4.78;3.10;;;22.40;92.10;;;;;;5011578;28;20037;-78
2023/09/10 00:12:56;;;;;;;4.85;3.22;;;22.40;92.10;;;;;;5012745;28;20088;-78
2023/09/10 00:15:21;;;;;;;5.15;3.13;;;22.40;92.10;;;;;;5011723;28;20057;-78
2023/09/10 00:17:47;;;;;;;4.88;3.17;;;22.40;92.10;;;;;;5012555;28;20029;-77
2023/09/10 00:20:12;;;;;;;4.95;3.45;;;22.40;92.10;;;;;;5010946;28;20018;-78
2023/09/10 00:22:42;;;;;;;4.90;3.15;;;22.40;92.10;;;;;;5012755;28;20379;-78
2023/09/10 00:25:09;;;;;;;4.80;3.13;;;22.40;92.20;;;;;;5011602;28;20050;-78
2023/09/10 00:27:34;;;;;;;4.63;3.20;;;22.30;92.20;;;;;;5011391;28;20029;-78
2023/09/10 00:30:00;;;;;;;5.35;3.50;;;22.30;92.20;;;;;;5012507;28;20386;-78
2023/09/10 00:32:25;;;;;;;4.97;3.47;;;22.40;92.20;;;;;;5012375;28;20032;-77
2023/09/10 00:34:51;;;;;;;5.13;3.47;;;22.20;92.20;;;;;;5010899;28;20490;-77
2023/09/10 00:37:16;;;;;;;5.00;3.30;;;22.30;92.30;;;;;;5013789;28;20547;-78
2023/09/10 00:39:42;;;;;;;4.75;3.35;;;22.30;92.30;;;;;;5010979;28;20045;-78
2023/09/10 00:42:09;;;;;;;4.40;3.10;;;22.30;92.30;;;;;;5012716;28;20044;-78
2023/09/10 00:44:36;;;;;;;5.07;3.20;;;22.30;92.30;;;;;;5011155;28;20406;-78
2023/09/10 00:47:02;;;;;;;5.25;3.33;;;22.30;92.30;;;;;;5012430;28;20429;-77
2023/09/10 00:49:28;;;;;;;4.68;3.10;;;22.30;92.30;;;;;;5011065;28;20034;-78
2023/09/10 00:51:54;;;;;;;5.43;3.60;;;22.30;92.30;;;;;;5011190;28;20494;-78
2023/09/10 00:54:23;;;;;;;4.53;3.30;;;22.30;92.30;;;;;;5012405;28;20113;-78
2023/09/10 00:56:48;;;;;;;4.68;3.38;;;22.30;92.30;;;;;;5012471;28;20018;-78
2023/09/10 00:59:14;;;;;;;5.40;3.40;;;22.30;92.20;;;;;;5013093;28;20029;-78
2023/09/10 01:01:40;;;;;;;4.90;3.58;;;22.40;92.20;;;;;;5015349;28;20029;-78
2023/09/10 01:04:05;;;;;;;5.13;3.55;;;22.40;92.20;;;;;;5016697;28;20026;-78
2023/09/10 01:06:31;;;;;;;4.90;3.22;;;22.40;92.20;;;;;;5015119;28;20061;-78
2023/09/10 01:08:58;;;;;;;4.97;3.40;;;22.40;92.20;;;;;;5016079;28;20494;-78
2023/09/10 01:12:01;;;;;;;4.80;3.38;;;22.40;92.20;;;;;;5015235;28;20032;-78
2023/09/10 01:14:42;;;;;;;4.60;3.20;;;22.30;92.20;;;;;;5015113;28;20072;-78
2023/09/10 01:17:30;;;;;;;4.85;3.38;;;22.30;92.20;;;;;;5015262;28;20041;-78
2023/09/10 01:20:12;;;;;;;5.40;3.60;;;22.30;92.20;;;;;;5014189;28;20037;-78
2023/09/10 01:22:48;;;;;;;6.15;4.00;;;22.30;92.30;;;;;;5016203;28;20022;-78
2023/09/10 01:25:14;;;;;;;4.80;3.30;;;22.30;92.30;;;;;;5014905;28;20069;-78
2023/09/10 01:27:40;;;;;;;5.10;3.40;;;22.30;92.30;;;;;;5014847;28;20022;-78
2023/09/10 01:30:09;;;;;;;4.88;3.30;;;22.30;92.30;;;;;;5015699;28;20041;-78
2023/09/10 01:32:44;;;;;;;4.40;3.15;;;22.30;92.30;;;;;;5015981;28;20017;-77
2023/09/10 01:35:29;;;;;;;5.10;3.60;;;22.30;92.40;;;;;;5014766;28;20113;-78
2023/09/10 01:37:59;;;;;;;4.70;3.28;;;22.30;92.40;;;;;;5015856;28;20026;-78
2023/09/10 01:40:43;;;;;;;5.25;3.60;;;22.30;92.40;;;;;;5014632;28;20403;-78
2023/09/10 01:43:10;;;;;;;5.28;3.60;;;22.20;92.40;;;;;;4998385;28;20462;-78
2023/09/10 01:45:36;;;;;;;5.10;3.42;;;22.30;92.40;;;;;;5014450;28;20038;-78
2023/09/10 01:48:02;;;;;;;5.40;3.70;;;22.30;92.40;;;;;;5014232;28;20026;-76
2023/09/10 01:50:31;;;;;;;4.95;3.55;;;22.30;92.30;;;;;;5014400;28;20029;-78
2023/09/10 01:52:58;;;;;;;4.90;3.30;;;22.30;92.30;;;;;;5014206;28;20513;-78
2023/09/10 01:55:24;;;;;;;5.82;3.75;;;22.40;92.30;;;;;;5014285;28;20022;-78
2023/09/10 01:57:50;;;;;;;5.78;3.90;;;22.40;92.20;;;;;;5014387;28;20117;-78
2023/09/10 02:00:16;;;;;;;5.35;3.60;;;22.40;92.20;;;;;;5015412;28;20026;-78
2023/09/10 02:02:42;;;;;;;5.05;3.30;;;22.40;92.20;;;;;;5014352;28;20164;-78
2023/09/10 02:05:07;;;;;;;5.50;3.50;;;22.30;92.30;;;;;;5015576;28;20018;-78
2023/09/10 02:07:34;;;;;;;4.60;3.30;;;22.30;92.30;;;;;;5015348;28;20053;-78
2023/09/10 02:09:59;;;;;;;5.55;3.70;;;22.30;92.30;;;;;;5015038;28;20021;-78
2023/09/10 02:12:25;;;;;;;4.57;3.58;;;22.30;92.30;;;;;;5013726;28;20026;-78
2023/09/10 02:14:50;;;;;;;4.95;3.53;;;22.30;92.30;;;;;;5013693;28;20026;-78
2023/09/10 02:17:16;;;;;;;5.10;3.50;;;22.30;92.30;;;;;;5013897;28;20018;-78
2023/09/10 02:19:41;;;;;;;5.38;3.63;;;22.30;92.30;;;;;;5014136;28;20021;-78
2023/09/10 02:22:07;;;;;;;5.40;3.50;;;22.30;92.40;;;;;;5014873;28;20022;-78
2023/09/10 02:24:32;;;;;;;5.80;3.92;;;22.30;92.40;;;;;;5014601;28;20107;-78
2023/09/10 02:26:58;;;;;;;5.70;3.80;;;22.30;92.40;;;;;;5013796;28;20054;-78
2023/09/10 02:29:23;;;;;;;5.05;3.70;;;22.30;92.40;;;;;;5013147;28;20026;-78
2023/09/10 02:31:49;;;;;;;5.20;3.65;;;22.30;92.40;;;;;;5013429;28;20030;-78
2023/09/10 02:34:14;;;;;;;5.68;3.70;;;22.30;92.40;;;;;;5013080;28;20522;-78
2023/09/10 02:36:40;;;;;;;5.30;3.50;;;22.30;92.50;;;;;;5013205;28;20057;-78
2023/09/10 02:39:05;;;;;;;5.35;3.60;;;22.30;92.40;;;;;;5013098;28;20387;-78
2023/09/10 02:41:31;;;;;;;5.25;3.75;;;22.30;92.40;;;;;;5013285;28;20030;-78
2023/09/10 02:43:56;;;;;;;5.07;3.75;;;22.30;92.40;;;;;;5013250;28;20029;-78
2023/09/10 02:46:23;;;;;;;5.20;3.80;;;22.30;92.30;;;;;;5013170;28;20021;-78
2023/09/10 02:48:49;;;;;;;4.93;3.50;;;22.30;92.30;;;;;;5014113;28;20022;-78
2023/09/10 02:51:14;;;;;;;5.20;3.42;;;22.30;92.30;;;;;;5013204;28;20044;-78
2023/09/10 02:53:40;;;;;;;5.00;3.42;;;22.30;92.20;;;;;;5014329;28;20390;-78
2023/09/10 02:56:05;;;;;;;5.35;4.05;;;22.30;92.30;;;;;;5012969;28;20500;-78
2023/09/10 02:58:32;;;;;;;5.53;3.90;;;22.30;92.30;;;;;;5010689;28;20061;-78
2023/09/10 03:01:05;;;;;;;5.40;3.75;;;22.30;92.30;;;;;;5012520;28;20386;-78
2023/09/10 03:03:32;;;;;;;5.70;4.20;;;22.30;92.40;;;;;;5005769;28;20088;-78
2023/09/10 03:05:57;;;;;;;5.57;3.83;;;22.30;92.40;;;;;;5012561;28;20034;-78
2023/09/10 03:08:23;;;;;;;5.95;4.10;;;22.30;92.60;;;;;;5012672;28;20025;-78
2023/09/10 03:10:48;;;;;;;5.70;3.88;;;22.30;92.40;;;;;;5012677;28;20383;-78
2023/09/10 03:13:14;;;;;;;5.45;3.72;;;22.30;92.40;;;;;;5012431;28;20068;-78
2023/09/10 03:15:39;;;;;;;5.35;3.72;;;22.20;92.40;;;;;;5012590;28;20018;-78
2023/09/10 03:18:05;;;;;;;5.43;3.80;;;22.30;92.40;;;;;;5013420;28;20060;-77
2023/09/10 03:20:31;;;;;;;5.43;4.00;;;22.20;92.40;;;;;;5012496;28;20037;-78
2023/09/10 03:22:59;;;;;;;5.78;4.10;;;22.20;92.40;;;;;;5011955;28;20469;-78
2023/09/10 03:25:25;;;;;;;5.43;3.80;;;22.20;92.40;;;;;;5013848;28;20440;-78
2023/09/10 03:27:50;;;;;;;5.72;4.05;;;22.20;92.40;;;;;;5012393;28;20022;-78
2023/09/10 03:30:19;;;;;;;5.47;3.85;;;22.20;92.40;;;;;;5012209;28;20512;-78
2023/09/10 03:32:48;;;;;;;5.90;4.13;;;22.30;92.40;;;;;;5012339;28;20034;-77
2023/09/10 03:35:13;;;;;;;5.75;4.20;;;22.30;92.40;;;;;;5013298;28;20040;-78
2023/09/10 03:37:39;;;;;;;5.35;3.85;;;22.30;92.40;;;;;;5013601;28;20109;-78
2023/09/10 03:40:05;;;;;;;5.88;4.28;;;22.30;92.40;;;;;;5013350;28;20021;-78
2023/09/10 03:42:31;;;;;;;5.80;4.10;;;22.30;92.30;;;;;;5012263;28;20084;-78
2023/09/10 03:44:57;;;;;;;6.00;4.40;;;22.30;92.30;;;;;;5013376;28;20038;-78
2023/09/10 03:47:22;;;;;;;5.68;4.13;;;22.30;92.30;;;;;;5012162;28;20082;-78
2023/09/10 03:49:48;;;;;;;6.07;4.18;;;22.30;92.30;;;;;;5013038;28;20026;-78
2023/09/10 03:52:18;;;;;;;5.85;4.05;;;22.30;92.40;;;;;;5012163;28;20026;-78
2023/09/10 03:54:44;;;;;;;6.28;4.07;;;22.30;92.40;;;;;;5011897;28;20025;-78
2023/09/10 03:57:09;;;;;;;6.15;3.97;;;22.30;92.40;;;;;;5013157;28;20482;-78
2023/09/10 03:59:35;;;;;;;5.72;4.30;;;22.30;92.40;;;;;;5011839;28;20478;-78
2023/09/10 04:02:00;;;;;;;6.75;4.20;;;22.30;92.40;;;;;;5013235;28;20026;-78
2023/09/10 04:04:26;;;;;;;5.70;4.20;;;22.30;92.40;;;;;;5012951;28;20030;-78
2023/09/10 04:06:52;;;;;;;6.60;4.25;;;22.20;92.40;;;;;;5011859;28;20494;-78
2023/09/10 04:09:17;;;;;;;6.13;4.32;;;22.20;92.50;;;;;;5012564;28;20401;-78
2023/09/10 04:11:42;;;;;;;5.72;4.35;;;22.20;92.40;;;;;;5011782;28;20072;-78
2023/09/10 04:14:08;;;;;;;6.38;4.20;;;22.20;92.40;;;;;;5012862;28;20028;-78
2023/09/10 04:16:33;;;;;;;6.18;4.50;;;22.20;92.50;;;;;;5012986;28;20048;-78
2023/09/10 04:18:59;;;;;;;5.90;4.25;;;22.20;92.50;;;;;;5012053;28;20034;-78
2023/09/10 04:21:25;;;;;;;5.90;4.40;;;22.20;92.50;;;;;;5011886;28;20109;-78
2023/09/10 04:23:50;;;;;;;5.70;4.15;;;22.20;92.50;;;;;;5011574;28;20498;-78
2023/09/10 04:26:16;;;;;;;5.30;3.97;;;22.30;92.50;;;;;;5012982;28;20032;-78
2023/09/10 04:28:42;;;;;;;6.10;4.50;;;22.30;92.40;;;;;;5011314;28;20050;-78
2023/09/10 04:31:16;;;;;;;6.68;4.60;;;22.30;92.40;;;;;;5011585;28;20054;-78
2023/09/10 04:33:42;;;;;;;6.00;4.47;;;22.30;92.40;;;;;;5010846;28;20022;-78
2023/09/10 04:36:08;;;;;;;5.80;4.57;;;22.30;92.30;;;;;;5012871;28;20104;-78
2023/09/10 04:38:34;;;;;;;6.00;4.40;;;22.30;92.30;;;;;;5011093;28;20025;-78
2023/09/10 04:40:59;;;;;;;6.20;4.47;;;22.30;92.30;;;;;;5012690;28;20034;-78
2023/09/10 04:43:25;;;;;;;6.07;4.53;;;22.30;92.40;;;;;;5012761;28;20390;-78
2023/09/10 04:45:50;;;;;;;6.15;4.65;;;22.30;92.40;;;;;;5011089;28;20033;-78
2023/09/10 04:48:17;;;;;;;5.97;4.32;;;22.30;92.50;;;;;;5012399;28;20033;-78
2023/09/10 04:50:44;;;;;;;6.00;4.30;;;22.30;92.50;;;;;;5011208;28;20029;-78
2023/09/10 04:53:10;;;;;;;6.78;4.93;;;22.20;92.40;;;;;;5011458;28;20474;-78
2023/09/10 04:55:36;;;;;;;6.25;4.72;;;22.20;92.40;;;;;;5012788;28;20067;-77
2023/09/10 04:58:02;;;;;;;6.28;4.85;;;22.20;92.50;;;;;;5010028;28;20127;-77
2023/09/10 05:00:27;;;;;;;6.20;4.43;;;22.20;92.50;;;;;;5010602;28;20025;-78
2023/09/10 05:02:53;;;;;;;6.18;4.50;;;22.20;92.50;;;;;;5002691;28;20567;-78
2023/09/10 05:05:18;;;;;;;6.10;4.60;;;22.20;92.50;;;;;;5012805;28;20022;-78
2023/09/10 05:07:50;;;;;;;6.50;4.72;;;22.20;92.50;;;;;;5011308;28;20025;-78
2023/09/10 05:10:16;;;;;;;5.60;4.28;;;22.20;92.50;;;;;;5012386;28;20033;-78
2023/09/10 05:12:42;;;;;;;6.10;4.75;;;22.20;92.50;;;;;;5011504;28;20112;-78
2023/09/10 05:15:09;;;;;;;5.70;4.50;;;22.20;92.50;;;;;;5003488;28;20117;-78
2023/09/10 05:17:34;;;;;;;5.97;4.68;;;22.20;92.50;;;;;;5004306;28;20019;-78
2023/09/10 05:20:00;;;;;;;6.78;4.45;;;22.30;92.50;;;;;;5010057;28;20036;-78
2023/09/10 05:22:25;;;;;;;5.90;4.53;;;22.30;92.40;;;;;;5010741;28;20028;-78
2023/09/10 05:24:51;;;;;;;6.40;4.95;;;22.30;92.40;;;;;;5010642;28;20037;-78
2023/09/10 05:27:17;;;;;;;6.13;4.63;;;22.30;92.40;;;;;;5012010;28;20402;-78
2023/09/10 05:29:42;;;;;;;6.25;4.85;;;22.30;92.40;;;;;;5010427;28;20382;-78
2023/09/10 05:32:08;;;;;;;7.40;5.10;;;22.30;92.30;;;;;;5010811;28;20383;-78
2023/09/10 05:34:35;;;;;;;6.22;4.90;;;22.30;92.30;;;;;;5012010;28;20073;-78
2023/09/10 05:37:00;;;;;;;6.53;5.00;;;22.30;92.40;;;;;;5010650;28;20457;-78
2023/09/10 05:39:26;;;;;;;6.35;4.90;;;22.30;92.40;;;;;;5010762;28;20117;-78
2023/09/10 05:41:51;;;;;;;6.40;4.88;;;22.30;92.40;;;;;;5011782;28;20068;-78
2023/09/10 05:44:17;;;;;;;6.55;4.93;;;22.30;92.40;;;;;;5011834;28;20029;-78
2023/09/10 05:46:42;;;;;;;6.40;4.80;;;22.20;92.40;;;;;;5014710;28;20010;-78
2023/09/10 05:49:08;;;;;;;6.85;5.00;;;22.30;92.40;;;;;;5014059;28;20103;-78
2023/09/10 05:51:33;;;;;;;5.95;4.38;;;22.30;92.40;;;;;;5015238;28;20029;-78
2023/09/10 05:53:59;;;;;;;6.30;4.55;;;22.30;92.40;;;;;;5013989;28;20030;-78
2023/09/10 05:56:27;;;;;;;6.30;4.72;;;22.30;92.40;;;;;;5013981;28;20049;-78
2023/09/10 05:58:53;;;;;;;6.35;4.97;;;22.30;92.40;;;;;;5014823;28;20026;-78
2023/09/10 06:01:18;;;;;;;6.15;4.90;;;22.30;92.30;;;;;;5013906;28;20021;-78
2023/09/10 06:03:44;;;;;;;6.35;5.00;;;22.30;92.30;;;;;;5015022;28;20030;-78
2023/09/10 06:06:09;;;;;;;6.40;4.82;;;22.30;92.30;;;;;;5014919;28;20030;-78
2023/09/10 06:08:35;;;;;;;6.35;4.85;;;22.30;92.30;;;;;;5013584;28;20455;-78
2023/09/10 06:11:00;;;;;;;6.13;4.78;;;22.30;92.30;;;;;;5015027;28;20040;-78
2023/09/10 06:13:28;;;;;;;6.88;5.30;;;22.40;92.20;;;;;;5015119;28;20030;-78
2023/09/10 06:15:53;;;;;;;6.63;4.90;;;22.40;92.10;;;;;;5013580;28;20026;-78
2023/09/10 06:18:19;;;;;;;6.10;4.60;;;22.40;92.00;;;;;;5014869;28;20045;-78
2023/09/10 06:20:44;;;;;;;7.28;5.20;;;22.40;91.90;;;;;;5014385;28;20018;-78
2023/09/10 06:23:10;;;;;;;5.95;4.78;;;22.40;91.90;;;;;;5015259;28;20405;-78
2023/09/10 06:25:35;;;;;;;6.57;5.10;;;22.40;91.90;;;;;;5013743;28;20022;-78
2023/09/10 06:28:01;;;;;;;6.35;4.80;;;22.40;91.90;;;;;;5014709;28;20084;-76
2023/09/10 06:30:26;;;;;;;6.82;5.13;;;22.50;91.90;;;;;;5013627;28;20328;-78
2023/09/10 06:32:52;;;;;;;6.47;5.07;;;22.50;91.90;;;;;;5013381;28;20080;-78
2023/09/10 06:35:17;;;;;;;6.65;5.10;;;22.50;91.90;;;;;;5014415;28;20049;-78
2023/09/10 06:37:45;;;;;;;6.25;4.68;;;22.50;91.90;;;;;;5014652;28;20032;-78
2023/09/10 06:40:13;;;;;;;6.35;4.68;;;22.50;91.90;;;;;;5014442;28;20048;-78
2023/09/10 06:42:39;;;;;;;6.40;4.70;;;22.50;91.90;;;;;;5014529;28;20471;-78
2023/09/10 06:45:05;;;;;;;6.65;5.30;;;22.50;91.90;;;;;;5013079;28;20032;-78
2023/09/10 06:47:31;;;;;;;6.60;5.45;;;22.50;91.90;;;;;;5013262;28;20025;-78
2023/09/10 06:49:57;;;;;;;5.93;4.55;;;22.50;91.80;;;;;;5012885;28;20029;-78
2023/09/10 06:52:22;;;;;;;6.72;4.97;;;22.50;91.80;;;;;;5014415;28;20026;-78
2023/09/10 06:54:48;;;;;;;6.30;4.88;;;22.60;91.80;;;;;;5013949;28;20030;-78
2023/09/10 06:57:13;;;;;;;6.80;4.93;;;22.60;91.80;;;;;;5013425;28;20022;-78
2023/09/10 06:59:39;;;;;;;5.78;4.63;;;22.60;91.80;;;;;;5012632;28;20026;-78
2023/09/10 07:02:04;;;;;;;6.35;5.00;;;22.60;91.80;;;;;;5014443;28;20101;-78
2023/09/10 07:04:30;;;;;;;6.43;5.07;;;22.60;91.70;;;;;;5013033;28;20548;-78
2023/09/10 07:06:55;;;;;;;7.20;5.07;;;22.70;91.70;;;;;;5012932;28;20072;-78
2023/09/10 07:09:22;;;;;;;6.38;5.13;;;22.70;91.60;;;;;;5014010;28;20406;-78
2023/09/10 07:11:52;;;;;;;6.55;5.10;;;22.70;91.50;;;;;;5013017;28;20485;-78
2023/09/10 07:14:19;;;;;;;6.47;4.90;;;22.80;91.50;;;;;;5013970;28;20066;-78
2023/09/10 07:16:45;;;;;;;6.13;4.50;;;22.80;91.40;;;;;;5012706;28;20044;-78
2023/09/10 07:19:11;;;;;;;6.13;4.65;;;22.80;91.40;;;;;;5012493;28;20045;-78
2023/09/10 07:21:37;;;;;;;7.03;5.63;;;22.80;91.40;;;;;;5014035;28;20517;-78
2023/09/10 07:24:06;;;;;;;6.60;5.05;;;22.80;91.30;;;;;;5012768;28;20030;-77
2023/09/10 07:26:32;;;;;;;6.43;5.10;;;22.80;91.30;;;;;;5012901;28;20095;-78
2023/09/10 07:28:58;;;;;;;6.35;5.00;;;22.80;91.30;;;;;;5012295;28;20022;-78
2023/09/10 07:31:23;;;;;;;6.20;4.93;;;22.80;91.20;;;;;;5012758;28;20082;-78
2023/09/10 07:33:49;;;;;;;6.72;5.15;;;22.90;91.30;;;;;;5013477;28;20470;-78
2023/09/10 07:36:14;;;;;;;6.63;5.07;;;22.90;91.30;;;;;;5012302;28;20045;-78
2023/09/10 07:38:40;;;;;;;6.70;5.25;;;22.90;91.30;;;;;;5013771;28;20161;-78
2023/09/10 07:41:05;;;;;;;6.35;5.07;;;22.90;91.20;;;;;;5012680;28;20474;-78
2023/09/10 07:43:31;;;;;;;6.70;5.55;;;22.90;91.20;;;;;;5013780;28;20415;-78
2023/09/10 07:45:56;;;;;;;6.82;5.18;;;22.90;91.20;;;;;;5012419;28;20485;-77
2023/09/10 07:48:22;;;;;;;6.40;5.05;;;23.00;91.20;;;;;;5012107;28;20120;-78
2023/09/10 07:50:54;;;;;;;7.10;5.68;;;23.00;91.10;;;;;;5012030;28;20033;-78
2023/09/10 07:53:20;;;;;;;6.80;5.50;;;23.00;91.10;;;;;;5013347;28;20030;-78
2023/09/10 07:55:45;;;;;;;6.47;5.18;;;23.00;91.10;;;;;;5012270;28;20024;-78
2023/09/10 07:58:11;;;;;;;7.00;5.63;;;23.00;91.00;;;;;;5013176;28;20022;-77
2023/09/10 08:00:36;;;;;;;6.93;5.35;;;23.10;91.00;;;;;;5013294;28;20049;-78
2023/09/10 08:03:03;;;;;;;6.53;5.30;;;23.10;90.90;;;;;;5012074;28;20038;-78
2023/09/10 08:05:29;;;;;;;7.15;5.80;;;23.20;90.90;;;;;;5013429;28;20508;-78
2023/09/10 08:07:54;;;;;;;6.85;5.60;;;23.10;91.00;;;;;;5011938;28;20060;-78
2023/09/10 08:10:20;;;;;;;7.00;5.43;;;23.20;90.70;;;;;;5011716;28;20065;-78
2023/09/10 08:12:45;;;;;;;6.88;5.70;;;23.20;90.70;;;;;;5013398;28;20022;-78
2023/09/10 08:15:11;;;;;;;7.00;6.10;;;23.20;90.70;;;;;;5013389;28;20108;-78
2023/09/10 08:17:36;;;;;;;6.82;5.40;;;23.20;90.80;;;;;;5011881;28;20021;-78
2023/09/10 08:20:03;;;;;;;7.25;6.22;;;23.20;90.70;;;;;;5011188;28;20026;-78
2023/09/10 08:22:29;;;;;;;7.55;6.45;;;23.20;90.70;;;;;;5012108;28;20030;-78
2023/09/10 08:24:55;;;;;;;7.28;5.90;;;23.20;91.00;;;;;;5011512;28;20040;-78
2023/09/10 08:27:20;;;;;;;6.72;5.40;;;23.30;90.70;;;;;;5012151;28;20029;-78
2023/09/10 08:29:46;;;;;;;7.47;5.70;;;23.40;90.70;;;;;;5011819;28;20390;-79
2023/09/10 08:32:12;;;;;;;7.10;5.75;;;23.30;90.70;;;;;;5013475;28;20030;-79
2023/09/10 08:34:38;;;;;;;6.72;5.65;;;23.30;90.60;;;;;;5012929;28;20030;-78
2023/09/10 08:37:05;;;;;;;7.10;5.93;;;23.30;90.60;;;;;;5013256;28;20072;-78
2023/09/10 08:39:31;;;;;;;7.15;6.03;;;23.30;90.60;;;;;;5013228;28;20080;-78
2023/09/10 08:42:11;;;;;;;7.50;6.00;;;23.40;90.60;;;;;;5011846;28;20021;-78
2023/09/10 08:44:39;;;;;;;6.95;5.65;;;23.40;90.50;;;;;;5012665;28;20026;-78
2023/09/10 08:47:07;;;;;;;7.07;5.43;;;23.40;90.60;;;;;;5013159;28;20034;-78
2023/09/10 08:49:34;;;;;;;7.63;6.00;;;23.40;90.60;;;;;;5011847;28;20053;-78
2023/09/10 08:52:00;;;;;;;7.20;5.72;;;23.40;90.50;;;;;;5013331;28;20022;-79
2023/09/10 08:54:26;;;;;;;6.95;5.82;;;23.40;90.50;;;;;;5012799;28;20026;-78
2023/09/10 08:56:54;;;;;;;7.40;5.70;;;23.50;90.50;;;;;;5013459;28;20404;-78
2023/09/10 08:59:21;;;;;;;7.03;5.68;;;23.40;90.40;;;;;;5013240;28;20026;-78
2023/09/10 09:01:47;;;;;;;7.25;6.05;;;23.50;90.40;;;;;;5011775;28;20512;-78
2023/09/10 09:04:14;;;;;;;7.47;6.07;;;23.50;90.40;;;;;;5011906;28;20026;-78
2023/09/10 09:06:43;;;;;;;6.75;5.53;;;23.50;90.40;;;;;;5013393;28;20044;-78
2023/09/10 09:09:11;;;;;;;7.07;5.45;;;23.50;90.40;;;;;;5012839;28;20033;-78
2023/09/10 09:11:38;;;;;;;7.00;5.50;;;23.50;90.40;;;;;;5013056;28;20034;-78
2023/09/10 09:14:07;;;;;;;7.07;5.63;;;23.50;90.40;;;;;;5013242;28;20455;-78
2023/09/10 09:16:34;;;;;;;6.80;5.53;;;23.50;90.50;;;;;;5011678;28;20117;-78
2023/09/10 09:19:05;;;;;;;7.00;5.22;;;23.50;90.50;;;;;;5012599;28;20094;-78
2023/09/10 09:21:31;;;;;;;6.80;5.40;;;23.50;90.50;;;;;;5015227;28;20072;-78
2023/09/10 09:23:59;;;;;;;7.18;5.85;;;23.50;90.40;;;;;;5016421;28;20045;-78
2023/09/10 09:26:27;;;;;;;6.93;5.50;;;23.50;90.40;;;;;;5016910;28;20084;-78
2023/09/10 09:28:56;;;;;;;7.20;5.70;;;23.60;90.50;;;;;;5016117;28;20056;-78
2023/09/10 09:31:22;;;;;;;6.82;5.50;;;23.60;90.50;;;;;;5016817;28;20087;-78
2023/09/10 09:33:48;;;;;;;7.00;5.55;;;23.60;90.50;;;;;;5016016;28;20544;-78
2023/09/10 09:36:13;;;;;;;6.47;5.40;;;23.60;90.50;;;;;;5014769;28;20042;-78
2023/09/10 09:38:45;;;;;;;6.97;5.50;;;23.60;90.50;;;;;;5015701;28;20022;-78
2023/09/10 09:41:10;;;;;;;;;;;23.60;90.50;;;;;;5015417;28;20120;-78
2023/09/10 09:43:36;;;;;;;6.55;4.85;;;23.70;90.50;;;;;;5014692;28;20385;-78
2023/09/10 09:46:03;;;;;;;6.82;5.38;;;23.70;90.70;;;;;;5016216;28;20123;-78
2023/09/10 09:48:29;;;;;;;6.90;5.13;;;23.70;90.40;;;;;;5015828;28;20486;-78
2023/09/10 09:50:56;;;;;;;6.50;5.03;;;23.70;90.30;;;;;;5014853;28;20038;-78
2023/09/10 09:53:30;;;;;;;6.13;4.93;;;23.70;90.30;;;;;;5014938;28;20084;-78
2023/09/10 09:55:56;;;;;;;6.32;5.00;;;23.70;90.30;;;;;;5016084;28;20041;-78
2023/09/10 09:58:22;;;;;;;6.75;5.30;;;23.70;90.40;;;;;;5014381;28;20489;-78
2023/09/10 10:00:47;;;;;;;6.50;4.90;;;23.70;90.40;;;;;;5014369;28;20057;-78
2023/09/10 10:03:13;;;;;;;6.65;5.07;;;23.70;90.40;;;;;;5015840;28;20113;-78
2023/09/10 10:05:39;;;;;;;6.20;4.82;;;23.70;90.50;;;;;;5014814;28;20061;-78
2023/09/10 10:08:04;;;;;;;7.65;6.07;;;23.80;90.50;;;;;;5016383;28;20102;-77
2023/09/10 10:10:30;;;;;;;13.90;11.43;;;23.70;90.60;;;;;;5017015;28;20100;-78
2023/09/10 10:12:56;;;;;;;17.55;12.77;;;23.70;89.10;;;;;;5014896;28;20044;-78
2023/09/10 10:15:22;;;;;;;17.52;13.65;;;23.80;89.70;;;;;;5013825;28;20112;-78
2023/09/10 10:17:50;;;;;;;17.55;13.75;;;23.70;89.40;;;;;;5015556;28;20026;-78
2023/09/10 10:20:17;;;;;;;14.73;12.50;;;23.50;89.40;;;;;;5015049;28;20068;-78
2023/09/10 10:22:43;;;;;;;15.23;12.60;;;23.70;89.40;;;;;;5014037;28;20025;-78
2023/09/10 10:25:09;;;;;;;13.85;12.43;;;23.70;89.60;;;;;;5014178;28;20026;-78
2023/09/10 10:27:35;;;;;;;14.00;12.00;;;23.70;89.50;;;;;;5013893;28;20517;-78
2023/09/10 10:30:01;;;;;;;13.70;11.80;;;23.70;89.40;;;;;;5014939;28;20390;-78
2023/09/10 10:32:42;;;;;;;12.85;11.55;;;23.70;89.40;;;;;;5012841;28;20029;-78
2023/09/10 10:35:12;;;;;;;14.25;12.15;;;23.80;89.50;;;;;;5013835;28;20243;-78
2023/09/10 10:37:58;;;;;;;13.65;11.93;;;23.80;89.50;;;;;;5015124;28;20033;-78
2023/09/10 10:40:28;;;;;;;12.70;11.40;;;23.80;89.40;;;;;;5014899;28;20104;-78
2023/09/10 10:42:57;;;;;;;13.10;11.32;;;23.80;89.50;;;;;;5013900;28;20018;-78
2023/09/10 10:45:25;;;;;;;12.43;11.13;;;23.80;89.70;;;;;;5013504;28;20393;-78
2023/09/10 10:47:50;;;;;;;12.65;10.80;;;23.80;89.80;;;;;;5013573;28;20079;-78
2023/09/10 10:50:24;;;;;;;12.02;10.73;;;23.80;90.00;;;;;;5014676;28;20022;-78
2023/09/10 10:53:04;;;;;;;12.70;11.40;;;23.80;90.00;;;;;;5014659;28;20033;-78
2023/09/10 10:55:32;;;;;;;11.80;10.52;;;23.80;90.00;;;;;;5014796;28;20075;-78
2023/09/10 10:57:58;;;;;;;12.15;10.45;;;23.70;90.00;;;;;;5014882;28;20067;-78
2023/09/10 11:00:24;;;;;;;12.40;10.98;;;23.70;90.10;;;;;;5014300;28;20022;-78
2023/09/10 11:03:14;;;;;;;11.52;10.02;;;23.70;90.10;;;;;;5014277;28;20026;-78
2023/09/10 11:06:04;;;;;;;11.43;10.23;;;23.70;90.10;;;;;;5014352;28;20029;-78
2023/09/10 11:08:41;;;;;;;11.25;10.07;;;23.70;90.20;;;;;;5014213;28;20048;-78
2023/09/10 11:11:08;;;;;;;11.88;10.63;;;23.70;90.20;;;;;;5013268;28;20090;-76
2023/09/10 11:13:54;;;;;;;10.95;9.77;;;23.70;90.20;;;;;;5014378;28;20033;-78
2023/09/10 11:16:20;;;;;;;11.27;9.55;;;23.70;90.20;;;;;;5013300;28;20057;-78
2023/09/10 11:18:46;;;;;;;11.80;10.05;;;23.80;90.20;;;;;;5013919;28;20062;-78
2023/09/10 11:21:16;;;;;;;11.57;10.38;;;23.70;90.20;;;;;;5013009;28;20026;-78
2023/09/10 11:23:57;;;;;;;10.65;9.13;;;23.80;90.10;;;;;;5013015;28;20034;-78
2023/09/10 11:26:22;;;;;;;10.77;9.38;;;23.80;90.10;;;;;;5012717;28;20030;-78
2023/09/10 11:28:55;;;;;;;10.60;9.50;;;23.80;90.10;;;;;;5012412;28;20033;-78
2023/09/10 11:31:37;;;;;;;10.15;9.02;;;23.80;90.10;;;;;;5014052;28;20501;-78
2023/09/10 11:34:18;;;;;;;10.45;9.35;;;23.80;90.20;;;;;;5012692;28;20029;-77
2023/09/10 11:36:47;;;;;;;10.85;9.40;;;23.70;90.20;;;;;;5013888;28;20037;-78
2023/09/10 11:39:14;;;;;;;10.30;9.07;;;23.70;90.20;;;;;;5014403;28;20026;-78
2023/09/10 11:41:51;;;;;;;10.70;9.00;;;23.70;90.30;;;;;;5013154;28;20026;-78
2023/09/10 11:44:17;;;;;;;10.90;9.70;;;23.70;90.30;;;;;;5013736;28;20076;-78
2023/09/10 11:46:43;;;;;;;11.27;8.93;;;23.70;90.40;;;;;;5013800;28;20567;-78
2023/09/10 11:49:09;;;;;;;10.75;9.02;;;23.70;90.40;;;;;;5013641;28;20411;-78
2023/09/10 11:51:45;;;;;;;9.63;8.55;;;23.70;90.40;;;;;;5012947;28;20101;-78
2023/09/10 11:54:16;;;;;;;9.77;8.77;;;23.70;90.40;;;;;;5013972;28;20066;-78
2023/09/10 11:56:42;;;;;;;9.82;8.80;;;23.70;90.40;;;;;;5013835;28;20018;-78
2023/09/10 11:59:08;;;;;;;10.15;8.77;;;23.70;90.40;;;;;;5012481;28;20417;-78
2023/09/10 12:01:34;;;;;;;9.45;8.30;;;23.70;90.40;;;;;;5014063;28;20030;-79
2023/09/10 12:04:01;;;;;;;9.35;8.43;;;23.70;90.40;;;;;;5013848;28;20025;-79
2023/09/10 12:06:27;;;;;;;9.60;8.60;;;23.70;90.40;;;;;;5012408;28;20046;-78
2023/09/10 12:08:53;;;;;;;9.68;8.68;;;23.70;90.40;;;;;;5011952;28;20025;-78
2023/09/10 12:11:20;;;;;;;11.20;8.70;;;23.70;90.40;;;;;;5012361;28;20026;-78
2023/09/10 12:13:46;;;;;;;9.70;8.70;;;23.70;90.40;;;;;;5011978;28;20152;-78
2023/09/10 12:16:12;;;;;;;8.70;7.80;;;23.70;90.40;;;;;;5013901;28;20057;-78
2023/09/10 12:18:39;;;;;;;9.60;8.30;;;23.70;90.30;;;;;;5013160;28;20532;-76
2023/09/10 12:21:05;;;;;;;9.85;8.30;;;23.70;90.30;;;;;;5013335;28;20026;-78
2023/09/10 12:23:31;;;;;;;10.10;8.30;;;23.70;90.30;;;;;;5012382;28;20025;-78
2023/09/10 12:26:00;;;;;;;9.90;8.48;;;23.70;90.40;;;;;;5013237;28;20115;-78
2023/09/10 12:28:26;;;;;;;10.07;8.20;;;23.70;90.40;;;;;;5013096;28;20030;-78
2023/09/10 12:30:52;;;;;;;9.45;8.05;;;23.70;90.50;;;;;;5011758;28;20616;-78
2023/09/10 12:33:20;;;;;;;8.90;8.00;;;23.70;90.50;;;;;;5011938;28;20421;-79
2023/09/10 12:35:47;;;;;;;9.32;8.00;;;23.70;90.50;;;;;;5013915;28;20517;-78
2023/09/10 12:38:16;;;;;;;9.23;8.23;;;23.70;90.60;;;;;;5011632;28;20032;-77
2023/09/10 12:40:42;;;;;;;9.00;7.60;;;23.60;90.50;;;;;;5012818;28;20064;-78
2023/09/10 12:43:08;;;;;;;8.52;7.63;;;23.60;90.70;;;;;;5011760;28;20080;-78
2023/09/10 12:45:35;;;;;;;9.20;8.20;;;23.60;90.60;;;;;;5011517;28;20030;-78